Latest Weather Observations for Proserpine

IDQ60801

Issued at 11:12 pm EST Wednesday 26 September 2018 (issued every 10 minutes, with the page automatically refreshed every 10 minutes)

About weather observations | Map of weather stations | Latest weather observations for QLD | Other Formats
Station Details ID: 033247 Name: PROSERPINE AIRPORT Lat: -20.49 Lon: 148.56 Height: 19.7 m
Data from the previous 72 hours. | See also: Recent months at Proserpine
Date/Time
EST
Temp
°C
App
Temp
°C
Dew
Point
°C
Rel
Hum
%
Delta-T
°C
Wind Press
QNH
hPa
Press
MSL
hPa
Rain since
9am
mm
Dir  Spd
km/h
Gust
km/h
Spd
kts
Gust
kts
26/11:00pm 16.9 16.9 15.1 89 1.0 SSW 9 13 5 7 1019.8 1019.7 0.0
26/10:30pm 16.8 16.3 15.0 89 1.0 SSW 11 13 6 7 1019.7 1019.6 0.0
26/10:00pm 16.8 15.8 14.6 87 1.3 SSW 13 15 7 8 1019.5 1019.4 0.0
26/09:30pm 18.0 18.1 14.5 80 2.0 SSE 7 7 4 4 1019.4 1019.3 0.0
26/09:00pm 19.0 19.1 15.5 80 2.1 SE 9 9 5 5 1019.2 1019.1 0.0
26/08:30pm 18.9 18.7 14.8 77 2.4 ESE 9 13 5 7 1019.0 1018.9 0.0
26/08:00pm 20.6 19.6 15.6 73 3.0 E 15 19 8 10 1018.6 1018.5 0.0
26/07:30pm 21.2 20.7 16.0 72 3.1 E 13 17 7 9 1018.3 1018.2 0.0
26/07:00pm 21.7 20.2 16.2 71 3.3 E 19 24 10 13 1018.0 1017.9 0.0
26/06:30pm 21.9 20.4 16.2 70 3.4 E 19 24 10 13 1017.6 1017.6 0.0
26/06:00pm 22.6 21.0 16.4 68 3.8 ESE 20 26 11 14 1017.4 1017.4 0.0
26/05:30pm 23.4 21.5 15.7 62 4.6 ESE 20 28 11 15 1017.1 1017.1 0.0
26/05:00pm 24.5 22.1 15.4 57 5.5 ESE 22 30 12 16 1016.9 1016.9 0.0
26/04:30pm 24.7 22.3 15.3 56 5.7 ESE 22 30 12 16 1016.7 1016.7 0.0
26/04:00pm 25.7 22.8 15.1 52 6.4 ESE 24 32 13 17 1016.5 1016.5 0.0
26/03:30pm 25.8 22.3 14.6 50 6.7 ESE 26 35 14 19 1016.5 1016.5 0.0
26/03:00pm 26.0 22.5 14.5 49 6.9 ESE 26 37 14 20 1016.5 1016.5 0.0
26/02:30pm 26.6 23.7 15.0 49 7.0 E 24 33 13 18 1016.7 1016.7 0.0
26/02:00pm 26.5 22.9 14.3 47 7.3 E 26 39 14 21 1017.1 1017.1 0.0
26/01:30pm 27.1 24.3 16.4 52 6.6 ESE 26 39 14 21 1017.5 1017.5 0.0
26/01:00pm 26.5 23.2 14.9 49 7.0 ESE 26 39 14 21 1018.1 1018.0 0.0
26/12:30pm 27.2 24.1 14.6 46 7.6 ESE 24 33 13 18 1018.4 1018.3 0.0
26/12:00pm 26.1 23.2 15.2 51 6.6 ESE 24 33 13 18 1018.8 1018.7 0.0
26/11:30am 26.8 24.1 15.5 50 6.9 ESE 24 37 13 20 1019.3 1019.2 0.0
26/11:00am 27.0 23.6 15.7 50 6.9 ESE 28 37 15 20 1019.7 1019.6 0.0
26/10:30am 25.6 22.7 15.0 52 6.4 SE 24 37 13 20 1020.1 1020.0 0.0
26/10:00am 26.4 24.3 16.1 53 6.3 ESE 22 35 12 19 1020.1 1020.0 0.0
26/09:30am 24.7 21.3 14.8 54 5.9 SE 26 33 14 18 1020.2 1020.1 0.0
26/09:00am 24.6 21.2 14.7 54 5.9 ESE 26 33 14 18 1020.0 1019.9 0.0
26/08:30am 24.5 22.3 16.0 59 5.2 ESE 22 30 12 16 1019.9 1019.8 0.0
26/08:00am 23.6 22.2 16.6 65 4.3 SSE 19 28 10 15 1019.6 1019.5 0.0
26/07:30am 21.8 22.0 16.7 73 3.1 SSE 11 17 6 9 1019.3 1019.2 0.0
26/07:00am 18.4 19.4 16.9 91 0.9 SSW 7 9 4 5 1018.8 1018.7 0.0
26/06:30am 16.3 16.4 15.5 95 0.5 SSW 9 11 5 6 1018.6 1018.5 0.0
26/06:00am 15.6 15.3 14.5 93 0.6 SSW 9 11 5 6 1018.3 1018.2 0.0
26/05:30am 15.7 15.1 14.6 93 0.6 SSW 11 13 6 7 1017.9 1017.8 0.0
26/05:00am 16.0 15.5 14.9 93 0.6 SW 11 13 6 7 1017.5 1017.5 0.0
26/04:30am 16.2 16.1 14.9 92 0.7 SW 9 11 5 6 1017.3 1017.3 0.0
26/04:00am 16.3 16.2 15.0 92 0.7 SSW 9 11 5 6 1017.3 1017.3 0.0
26/03:30am 16.5 16.4 14.9 90 0.9 SSW 9 11 5 6 1017.3 1017.3 0.0
26/03:00am 16.5 16.4 15.0 91 0.9 SSW 9 11 5 6 1017.5 1017.5 0.0
26/02:30am 16.9 16.6 15.4 91 0.9 SSW 11 13 6 7 1017.9 1017.8 0.0
26/02:00am 17.2 17.3 15.4 89 1.0 SSW 9 9 5 5 1018.5 1018.4 0.0
26/01:30am 17.0 17.4 15.2 89 1.0 SSW 7 9 4 5 1018.9 1018.8 0.0
26/01:00am 16.9 16.8 14.9 88 1.2 SSW 9 9 5 5 1019.1 1019.0 0.0
26/12:30am 17.7 17.6 15.0 84 1.6 SSW 9 13 5 7 1019.4 1019.3 0.0
26/12:00am 18.9 18.5 16.1 84 1.7 S 13 19 7 10 1019.5 1019.4 0.0
 
Date/Time
EST
Temp
°C
App
Temp
°C
Dew
Point
°C
Rel
Hum
%
Delta-T
°C
Wind Press
QNH
hPa
Press
MSL
hPa
Rain since
9am
mm
Dir  Spd
km/h
Gust
km/h
Spd
kts
Gust
kts
25/11:30pm 17.9 18.0 15.5 86 1.4 SSW 9 13 5 7 1019.6 1019.5 0.0
25/11:00pm 18.2 18.7 15.5 84 1.6 SSW 7 9 4 5 1019.8 1019.7 0.0
25/10:30pm 18.4 18.2 15.8 85 1.5 SSW 11 13 6 7 1019.8 1019.7 0.0
25/10:00pm 18.7 18.8 15.4 81 1.9 SSW 9 13 5 7 1019.9 1019.8 0.0
25/09:30pm 20.5 19.9 15.7 74 2.9 ESE 13 17 7 9 1019.7 1019.6 0.0
25/09:00pm 21.1 20.0 16.3 74 2.9 ESE 17 24 9 13 1019.6 1019.5 0.0
25/08:30pm 20.6 20.1 16.0 75 2.8 ESE 13 19 7 10 1019.5 1019.4 0.0
25/08:00pm 20.7 20.3 16.1 75 2.8 ESE 13 17 7 9 1019.3 1019.2 0.0
25/07:30pm 20.7 19.6 16.3 76 2.7 SE 17 22 9 12 1019.0 1018.9 0.0
25/07:00pm 20.8 19.6 16.0 74 2.9 SE 17 20 9 11 1018.8 1018.7 0.0
25/06:30pm 21.5 20.2 15.8 70 3.4 ESE 17 24 9 13 1018.6 1018.5 0.0
25/06:00pm 22.0 20.2 15.6 67 3.8 ESE 19 28 10 15 1018.1 1018.0 0.0
25/05:30pm 22.9 20.2 15.5 63 4.4 E 24 33 13 18 1017.8 1017.7 0.0
25/05:00pm 23.9 20.7 15.4 59 5.1 ESE 26 35 14 19 1017.8 1017.7 0.0
25/04:30pm 24.2 20.5 15.1 56 5.5 E 28 39 15 21 1017.4 1017.4 0.0
25/04:00pm 24.5 21.0 15.4 57 5.5 ESE 28 39 15 21 1017.2 1017.2 0.0
25/03:30pm 25.0 20.7 15.3 55 5.8 ESE 32 44 17 24 1017.1 1017.1 0.0
25/03:00pm 25.2 21.2 15.2 54 6.0 ESE 30 41 16 22 1017.1 1017.1 0.0
25/02:30pm 25.4 20.9 14.8 52 6.4 ESE 32 43 17 23 1017.4 1017.4 0.0
25/02:00pm 26.3 22.6 16.0 53 6.3 ESE 30 39 16 21 1017.6 1017.6 0.0
25/01:30pm 26.3 21.8 15.0 49 6.8 ESE 32 44 17 24 1018.0 1017.9 0.0
25/01:00pm 27.3 23.0 14.3 45 7.8 ESE 30 41 16 22 1018.3 1018.2 0.0
25/12:30pm 26.2 21.3 13.7 46 7.4 ESE 32 43 17 23 1018.8 1018.7 0.0
25/12:00pm 26.0 21.7 14.5 49 6.9 E 30 39 16 21 1019.2 1019.1 0.0
25/11:30am 26.2 21.1 13.0 44 7.7 ESE 32 46 17 25 1019.8 1019.7 0.0
25/11:00am 26.1 21.5 14.6 49 6.9 ESE 32 44 17 24 1020.3 1020.2 0.0
25/10:30am 24.7 20.0 14.8 54 5.9 ESE 33 44 18 24 1020.6 1020.5 0.0
25/10:00am 25.8 21.8 16.6 56 5.7 SE 33 46 18 25 1020.7 1020.6 0.0
25/09:30am 25.7 22.0 16.0 55 5.9 ESE 30 43 16 23 1020.6 1020.5 0.0
25/09:00am 24.5 20.4 16.0 59 5.2 SE 32 43 17 23 1020.6 1020.5 0.0
25/08:30am 24.4 20.7 16.1 60 5.1 SE 30 41 16 22 1020.2 1020.1 0.0
25/08:00am 23.6 21.7 16.6 65 4.3 SE 22 35 12 19 1019.9 1019.8 0.0
25/07:30am 20.6 19.3 15.8 74 2.9 SSE 17 22 9 12 1019.5 1019.4 0.0
25/07:00am 19.2 18.0 16.2 83 1.8 SSE 17 22 9 12 1019.1 1019.0 0.0
25/06:30am 18.4 17.6 16.0 86 1.4 S 15 20 8 11 1018.7 1018.6 0.0
25/06:00am 17.8 17.2 15.6 87 1.3 S 13 17 7 9 1018.4 1018.3 0.0
25/05:30am 18.2 17.4 16.2 88 1.2 SSE 15 20 8 11 1018.1 1018.0 0.0
25/05:00am 16.9 17.0 15.6 92 0.8 S 9 15 5 8 1018.0 1017.9 0.0
25/04:30am 16.7 15.7 14.7 88 1.2 S 13 15 7 8 1017.8 1017.7 0.0
25/04:00am 17.9 16.9 15.7 87 1.3 S 15 20 8 11 1017.5 1017.5 0.0
25/03:30am 17.5 16.9 15.7 89 1.1 S 13 17 7 9 1017.6 1017.6 0.0
25/03:00am 16.4 15.9 14.9 91 0.9 SSW 11 11 6 6 1017.9 1017.8 0.0
25/02:30am 15.8 15.0 14.0 89 1.0 SSW 11 13 6 7 1018.1 1018.0 0.0
25/02:00am 17.4 17.0 15.2 87 1.3 S 11 17 6 9 1018.5 1018.4 0.0
25/01:30am 16.0 15.1 13.8 87 1.2 SSW 11 13 6 7 1018.9 1018.8 0.0
25/01:00am 16.8 16.7 13.9 83 1.6 SW 7 9 4 5 1019.4 1019.3 0.0
25/12:30am 17.7 16.8 13.8 78 2.2 S 11 19 6 10 1019.7 1019.6 0.0
25/12:00am 19.2 18.0 15.1 77 2.4 SSE 15 20 8 11 1019.9 1019.8 0.0
 
Date/Time
EST
Temp
°C
App
Temp
°C
Dew
Point
°C
Rel
Hum
%
Delta-T
°C
Wind Press
QNH
hPa
Press
MSL
hPa
Rain since
9am
mm
Dir  Spd
km/h
Gust
km/h
Spd
kts
Gust
kts
24/11:30pm 19.0 18.1 14.9 77 2.4 S 13 19 7 10 1020.0 1019.9 0.0
24/11:00pm 18.7 18.4 14.4 76 2.5 S 9 13 5 7 1020.1 1020.0 0.0
24/10:30pm 19.2 18.3 14.9 76 2.5 S 13 17 7 9 1020.3 1020.2 0.0
24/10:00pm 19.6 18.8 15.0 75 2.7 SSE 13 17 7 9 1020.2 1020.1 0.0
24/09:30pm 19.7 19.0 15.4 76 2.5 SSE 13 17 7 9 1020.2 1020.1 0.0
24/09:00pm 19.5 18.8 15.4 77 2.4 SSE 13 17 7 9 1020.1 1020.0 0.0
24/08:30pm 19.4 19.8 15.3 77 2.4 SSE 7 9 4 5 1020.0 1019.9 0.0
24/08:00pm 19.8 19.5 15.4 76 2.6 ESE 11 17 6 9 1019.6 1019.5 0.0
24/07:30pm 19.6 19.1 15.0 75 2.7 ESE 11 15 6 8 1019.3 1019.2 0.0
24/07:00pm 20.3 19.5 15.1 72 3.1 ESE 13 17 7 9 1019.0 1018.9 0.0
24/06:30pm 21.1 20.3 15.0 68 3.6 ESE 13 19 7 10 1018.6 1018.5 0.0
24/06:00pm 22.0 19.9 13.6 59 4.9 E 17 26 9 14 1018.3 1018.2 0.0
24/05:30pm 23.0 19.5 13.5 55 5.5 ESE 24 35 13 19 1018.1 1018.0 0.0
24/05:00pm 23.9 20.0 13.4 51 6.1 ESE 26 35 14 19 1017.8 1017.7 0.0
24/04:30pm 23.8 18.9 13.6 52 5.9 ESE 32 41 17 22 1017.4 1017.4 0.0
24/04:00pm 24.7 20.1 15.1 55 5.8 ESE 33 44 18 24 1017.2 1017.2 0.0
24/03:30pm 25.0 20.3 14.8 53 6.1 ESE 33 43 18 23 1017.0 1017.0 0.0
24/03:00pm 25.3 20.5 14.7 51 6.3 ESE 33 44 18 24 1017.0 1017.0 0.0
24/02:30pm 25.6 21.2 14.1 49 6.8 ESE 30 43 16 23 1017.2 1017.2 0.0
24/02:00pm 26.0 21.2 14.1 47 7.1 ESE 32 43 17 23 1017.5 1017.5 0.0
24/01:30pm 25.6 20.2 12.8 45 7.4 E 33 46 18 25 1018.0 1017.9 0.0
24/01:00pm 26.9 22.3 13.6 44 7.8 E 30 50 16 27 1018.3 1018.2 0.0
24/12:35pm 26.5 22.1 12.9 43 7.9 ESE 28 48 15 26 1018.7 1018.6 0.0
24/12:30pm 27.2 23.1 13.9 44 7.9 ESE 28 43 15 23 1018.8 1018.7 0.0
24/12:00pm 26.4 22.4 14.2 47 7.3 ESE 28 41 15 22 1019.1 1019.0 0.0
24/11:30am 26.3 22.6 13.8 46 7.4 ESE 26 35 14 19 1019.5 1019.4 0.0
24/11:00am 27.1 22.8 14.5 46 7.5 SE 30 41 16 22 1019.7 1019.6 0.0
24/10:30am 25.9 22.3 14.1 48 7.0 ESE 26 39 14 21 1020.0 1019.9 0.0
24/10:00am 25.4 21.7 15.1 53 6.2 ESE 28 35 15 19 1020.0 1019.9 0.0
24/09:30am 24.7 22.0 14.5 53 6.1 ESE 22 32 12 17 1019.9 1019.8 0.0
24/09:00am 23.7 21.2 15.2 59 5.1 ESE 22 32 12 17 1019.8 1019.7 0.0
24/08:30am 23.3 21.5 16.1 64 4.4 ESE 20 32 11 17 1019.4 1019.3 0.0
24/08:00am 22.4 21.8 15.7 66 4.0 SE 13 19 7 10 1019.0 1018.9 0.0
24/07:30am 20.3 20.9 15.7 75 2.7 S 7 11 4 6 1019.2 1019.1 0.0
24/07:00am 17.2 17.4 14.7 85 1.4 SSW 7 9 4 5 1019.2 1019.1 0.0
24/06:30am 15.0 15.0 13.7 92 0.7 S 6 7 3 4 1019.0 1018.9 0.0
24/06:00am 14.1 13.6 12.7 91 0.8 SSW 7 9 4 5 1018.9 1018.8 0.0
24/05:30am 14.4 13.6 13.0 91 0.8 SSW 9 11 5 6 1018.9 1018.8 0.0
24/05:00am 14.9 14.2 13.3 90 0.9 SSW 9 11 5 6 1018.7 1018.6 0.0
24/04:30am 14.7 13.9 12.9 89 1.0 SSW 9 11 5 6 1018.7 1018.6 0.0
24/04:00am 14.9 13.8 13.1 89 1.0 SSW 11 13 6 7 1018.6 1018.5 0.0
24/03:30am 15.0 14.2 12.9 87 1.2 SSW 9 11 5 6 1018.7 1018.6 0.0
24/03:00am 15.5 14.4 13.2 86 1.3 SSW 11 13 6 7 1018.9 1018.8 0.0
24/02:30am 15.6 14.6 13.3 86 1.3 SSW 11 13 6 7 1019.3 1019.2 0.0
24/02:00am 15.6 14.9 13.3 86 1.3 SSW 9 11 5 6 1019.4 1019.3 0.0
24/01:30am 15.5 14.4 13.0 85 1.4 SW 11 11 6 6 1019.7 1019.6 0.0
24/01:00am 16.1 15.3 13.0 82 1.7 SSW 9 11 5 6 1020.1 1020.0 0.0
24/12:30am 16.6 16.4 13.1 80 2.0 SSW 6 7 3 4 1020.6 1020.5 0.0
24/12:00am 16.7 15.3 13.4 81 1.8 SSW 13 13 7 7 1020.7 1020.6 0.0
 
Date/Time
EST
Temp
°C
App
Temp
°C
Dew
Point
°C
Rel
Hum
%
Delta-T
°C
Wind Press
QNH
hPa
Press
MSL
hPa
Rain since
9am
mm
Dir  Spd
km/h
Gust
km/h
Spd
kts
Gust
kts
23/11:30pm 16.5 15.8 13.2 81 1.8 SSW 9 11 5 6 1020.9 1020.8 0.0

Other Formats:

Comma delimited format used in spreadsheet applications
http://www.bom.gov.au/fwo/IDQ60801/IDQ60801.94365.axf

JavaScript Object Notation format (JSON) in row-major order
http://www.bom.gov.au/fwo/IDQ60801/IDQ60801.94365.json